sensor_id;sensor_type;location;lat;lon;timestamp;temperature;humidity
42147;DHT22;27815;43.410;11.852;2023-05-16T00:01:09;14.40;66.20
42147;DHT22;27815;43.410;11.852;2023-05-16T00:05:14;14.40;66.40
42147;DHT22;27815;43.410;11.852;2023-05-16T00:09:18;14.50;66.50
42147;DHT22;27815;43.410;11.852;2023-05-16T00:13:21;14.50;66.50
42147;DHT22;27815;43.410;11.852;2023-05-16T00:17:27;14.50;66.70
42147;DHT22;27815;43.410;11.852;2023-05-16T00:21:30;14.50;66.60
42147;DHT22;27815;43.410;11.852;2023-05-16T00:25:33;14.60;66.70
42147;DHT22;27815;43.410;11.852;2023-05-16T00:29:36;14.60;66.90
42147;DHT22;27815;43.410;11.852;2023-05-16T00:33:39;14.70;66.90
42147;DHT22;27815;43.410;11.852;2023-05-16T00:37:42;14.70;66.90
42147;DHT22;27815;43.410;11.852;2023-05-16T00:41:45;14.80;67.00
42147;DHT22;27815;43.410;11.852;2023-05-16T00:45:48;14.80;67.10
42147;DHT22;27815;43.410;11.852;2023-05-16T00:49:51;14.80;67.00
42147;DHT22;27815;43.410;11.852;2023-05-16T00:53:56;14.80;66.90
42147;DHT22;27815;43.410;11.852;2023-05-16T00:57:59;14.90;67.00
42147;DHT22;27815;43.410;11.852;2023-05-16T01:02:02;14.80;67.10
42147;DHT22;27815;43.410;11.852;2023-05-16T01:06:05;14.80;67.10
42147;DHT22;27815;43.410;11.852;2023-05-16T01:10:09;14.70;67.50
42147;DHT22;27815;43.410;11.852;2023-05-16T01:14:16;14.60;68.00
42147;DHT22;27815;43.410;11.852;2023-05-16T01:19:18;14.50;69.30
42147;DHT22;27815;43.410;11.852;2023-05-16T01:27:26;14.50;70.90
42147;DHT22;27815;43.410;11.852;2023-05-16T01:31:29;14.40;70.70
42147;DHT22;27815;43.410;11.852;2023-05-16T01:35:33;14.40;70.30
42147;DHT22;27815;43.410;11.852;2023-05-16T01:39:44;14.30;70.00
42147;DHT22;27815;43.410;11.852;2023-05-16T01:43:51;14.30;69.80
42147;DHT22;27815;43.410;11.852;2023-05-16T01:48:17;14.10;69.70
42147;DHT22;27815;43.410;11.852;2023-05-16T01:52:27;14.00;69.60
42147;DHT22;27815;43.410;11.852;2023-05-16T01:56:32;13.90;69.80
42147;DHT22;27815;43.410;11.852;2023-05-16T02:00:35;13.70;70.00
42147;DHT22;27815;43.410;11.852;2023-05-16T02:04:38;13.50;70.30
42147;DHT22;27815;43.410;11.852;2023-05-16T02:08:42;13.40;70.80
42147;DHT22;27815;43.410;11.852;2023-05-16T02:12:45;13.30;71.10
42147;DHT22;27815;43.410;11.852;2023-05-16T02:16:48;13.20;71.30
42147;DHT22;27815;43.410;11.852;2023-05-16T02:20:51;13.20;71.30
42147;DHT22;27815;43.410;11.852;2023-05-16T02:24:54;13.20;71.50
42147;DHT22;27815;43.410;11.852;2023-05-16T02:28:57;13.10;71.50
42147;DHT22;27815;43.410;11.852;2023-05-16T02:33:03;13.10;71.60
42147;DHT22;27815;43.410;11.852;2023-05-16T02:37:06;13.10;71.70
42147;DHT22;27815;43.410;11.852;2023-05-16T02:41:09;13.10;71.90
42147;DHT22;27815;43.410;11.852;2023-05-16T02:45:12;13.10;72.20
42147;DHT22;27815;43.410;11.852;2023-05-16T02:49:14;13.10;72.20
42147;DHT22;27815;43.410;11.852;2023-05-16T02:53:17;13.00;72.00
42147;DHT22;27815;43.410;11.852;2023-05-16T02:57:20;13.10;71.90
42147;DHT22;27815;43.410;11.852;2023-05-16T03:01:23;13.10;71.80
42147;DHT22;27815;43.410;11.852;2023-05-16T03:05:26;13.10;71.70
42147;DHT22;27815;43.410;11.852;2023-05-16T03:09:30;13.10;71.50
42147;DHT22;27815;43.410;11.852;2023-05-16T03:13:33;13.30;71.40
42147;DHT22;27815;43.410;11.852;2023-05-16T03:17:35;13.30;71.30
42147;DHT22;27815;43.410;11.852;2023-05-16T03:21:38;13.40;71.00
42147;DHT22;27815;43.410;11.852;2023-05-16T03:25:41;13.50;70.80
42147;DHT22;27815;43.410;11.852;2023-05-16T03:29:45;13.50;70.70
42147;DHT22;27815;43.410;11.852;2023-05-16T03:33:48;13.50;70.70
42147;DHT22;27815;43.410;11.852;2023-05-16T03:37:51;13.60;70.70
42147;DHT22;27815;43.410;11.852;2023-05-16T03:41:54;13.60;70.60
42147;DHT22;27815;43.410;11.852;2023-05-16T03:46:00;13.60;70.50
42147;DHT22;27815;43.410;11.852;2023-05-16T03:50:04;13.80;70.50
42147;DHT22;27815;43.410;11.852;2023-05-16T03:54:07;13.80;70.30
42147;DHT22;27815;43.410;11.852;2023-05-16T03:58:10;13.90;70.30
42147;DHT22;27815;43.410;11.852;2023-05-16T04:02:13;14.00;70.20
42147;DHT22;27815;43.410;11.852;2023-05-16T04:06:19;14.00;70.00
42147;DHT22;27815;43.410;11.852;2023-05-16T04:10:23;14.00;69.90
42147;DHT22;27815;43.410;11.852;2023-05-16T04:14:26;14.10;69.80
42147;DHT22;27815;43.410;11.852;2023-05-16T04:18:29;14.10;69.70
42147;DHT22;27815;43.410;11.852;2023-05-16T04:22:32;14.10;69.60
42147;DHT22;27815;43.410;11.852;2023-05-16T04:26:35;14.10;69.50
42147;DHT22;27815;43.410;11.852;2023-05-16T04:35:34;14.10;69.40
42147;DHT22;27815;43.410;11.852;2023-05-16T04:40:25;14.10;69.30
42147;DHT22;27815;43.410;11.852;2023-05-16T04:44:33;14.10;69.30
42147;DHT22;27815;43.410;11.852;2023-05-16T04:48:36;14.20;69.20
42147;DHT22;27815;43.410;11.852;2023-05-16T04:52:39;14.30;69.10
42147;DHT22;27815;43.410;11.852;2023-05-16T04:56:42;14.30;68.90
42147;DHT22;27815;43.410;11.852;2023-05-16T05:00:45;14.40;68.80
42147;DHT22;27815;43.410;11.852;2023-05-16T05:04:49;14.50;68.80
42147;DHT22;27815;43.410;11.852;2023-05-16T05:08:53;14.50;68.60
42147;DHT22;27815;43.410;11.852;2023-05-16T05:12:56;14.50;68.50
42147;DHT22;27815;43.410;11.852;2023-05-16T05:16:59;14.60;68.40
42147;DHT22;27815;43.410;11.852;2023-05-16T05:21:03;14.70;68.30
42147;DHT22;27815;43.410;11.852;2023-05-16T05:25:07;14.80;68.20
42147;DHT22;27815;43.410;11.852;2023-05-16T05:29:10;14.80;68.10
42147;DHT22;27815;43.410;11.852;2023-05-16T05:33:15;14.90;68.10
42147;DHT22;27815;43.410;11.852;2023-05-16T05:37:18;14.90;68.00
42147;DHT22;27815;43.410;11.852;2023-05-16T05:41:21;14.90;67.90
42147;DHT22;27815;43.410;11.852;2023-05-16T05:45:25;15.00;67.90
42147;DHT22;27815;43.410;11.852;2023-05-16T05:49:28;15.00;67.80
42147;DHT22;27815;43.410;11.852;2023-05-16T05:53:31;15.10;67.70
42147;DHT22;27815;43.410;11.852;2023-05-16T05:57:37;15.20;67.40
42147;DHT22;27815;43.410;11.852;2023-05-16T06:01:40;15.30;67.10
42147;DHT22;27815;43.410;11.852;2023-05-16T06:05:44;15.40;66.90
42147;DHT22;27815;43.410;11.852;2023-05-16T06:09:47;15.40;66.80
42147;DHT22;27815;43.410;11.852;2023-05-16T06:13:50;15.40;67.00
42147;DHT22;27815;43.410;11.852;2023-05-16T06:17:53;15.30;67.40
42147;DHT22;27815;43.410;11.852;2023-05-16T06:21:56;15.20;67.80
42147;DHT22;27815;43.410;11.852;2023-05-16T06:25:59;15.10;68.10
42147;DHT22;27815;43.410;11.852;2023-05-16T06:30:02;15.00;68.50
42147;DHT22;27815;43.410;11.852;2023-05-16T06:34:07;14.90;68.70
42147;DHT22;27815;43.410;11.852;2023-05-16T06:38:10;14.80;69.00
42147;DHT22;27815;43.410;11.852;2023-05-16T06:42:12;14.70;69.50
42147;DHT22;27815;43.410;11.852;2023-05-16T06:46:15;14.50;70.10
42147;DHT22;27815;43.410;11.852;2023-05-16T06:50:18;14.30;70.60
42147;DHT22;27815;43.410;11.852;2023-05-16T06:54:23;14.10;71.40
42147;DHT22;27815;43.410;11.852;2023-05-16T06:58:26;14.00;72.20
42147;DHT22;27815;43.410;11.852;2023-05-16T07:02:29;13.70;73.10
42147;DHT22;27815;43.410;11.852;2023-05-16T07:06:33;13.60;73.40
42147;DHT22;27815;43.410;11.852;2023-05-16T07:10:35;13.60;73.70
42147;DHT22;27815;43.410;11.852;2023-05-16T07:14:38;13.60;73.60
42147;DHT22;27815;43.410;11.852;2023-05-16T07:18:42;13.60;74.00
42147;DHT22;27815;43.410;11.852;2023-05-16T07:22:45;13.60;74.10
42147;DHT22;27815;43.410;11.852;2023-05-16T07:26:48;13.50;74.30
42147;DHT22;27815;43.410;11.852;2023-05-16T07:30:51;13.40;74.70
42147;DHT22;27815;43.410;11.852;2023-05-16T07:34:56;13.40;74.80
42147;DHT22;27815;43.410;11.852;2023-05-16T07:38:59;13.40;75.00
42147;DHT22;27815;43.410;11.852;2023-05-16T07:43:02;13.40;75.10
42147;DHT22;27815;43.410;11.852;2023-05-16T07:47:05;13.40;75.20
42147;DHT22;27815;43.410;11.852;2023-05-16T07:51:08;13.40;75.20
42147;DHT22;27815;43.410;11.852;2023-05-16T07:55:10;13.40;75.30
42147;DHT22;27815;43.410;11.852;2023-05-16T07:59:13;13.50;75.50
42147;DHT22;27815;43.410;11.852;2023-05-16T08:03:16;13.50;75.50
42147;DHT22;27815;43.410;11.852;2023-05-16T08:07:19;13.60;75.40
42147;DHT22;27815;43.410;11.852;2023-05-16T08:11:22;13.50;75.60
42147;DHT22;27815;43.410;11.852;2023-05-16T08:15:26;13.50;75.90
42147;DHT22;27815;43.410;11.852;2023-05-16T08:19:31;13.50;76.00
42147;DHT22;27815;43.410;11.852;2023-05-16T08:23:34;13.50;75.90
42147;DHT22;27815;43.410;11.852;2023-05-16T08:27:37;13.50;76.00
42147;DHT22;27815;43.410;11.852;2023-05-16T08:31:40;13.50;75.90
42147;DHT22;27815;43.410;11.852;2023-05-16T08:35:44;13.50;75.90
42147;DHT22;27815;43.410;11.852;2023-05-16T08:39:47;13.60;76.00
42147;DHT22;27815;43.410;11.852;2023-05-16T08:43:51;13.70;75.90
42147;DHT22;27815;43.410;11.852;2023-05-16T08:47:54;13.70;76.00
42147;DHT22;27815;43.410;11.852;2023-05-16T08:51:59;13.70;76.00
42147;DHT22;27815;43.410;11.852;2023-05-16T08:56:03;13.80;75.90
42147;DHT22;27815;43.410;11.852;2023-05-16T09:00:07;13.80;75.90
42147;DHT22;27815;43.410;11.852;2023-05-16T09:04:15;14.00;75.90
42147;DHT22;27815;43.410;11.852;2023-05-16T09:08:18;14.10;75.70
42147;DHT22;27815;43.410;11.852;2023-05-16T09:12:21;14.20;75.70
42147;DHT22;27815;43.410;11.852;2023-05-16T09:16:24;14.30;75.60
42147;DHT22;27815;43.410;11.852;2023-05-16T09:20:28;14.50;75.60
42147;DHT22;27815;43.410;11.852;2023-05-16T09:24:30;14.60;75.60
42147;DHT22;27815;43.410;11.852;2023-05-16T09:28:36;14.70;75.80
42147;DHT22;27815;43.410;11.852;2023-05-16T09:32:43;14.80;75.90
42147;DHT22;27815;43.410;11.852;2023-05-16T09:36:53;14.90;75.90
42147;DHT22;27815;43.410;11.852;2023-05-16T09:40:56;15.00;76.10
42147;DHT22;27815;43.410;11.852;2023-05-16T09:45:00;15.00;76.20
42147;DHT22;27815;43.410;11.852;2023-05-16T09:49:11;15.20;76.00
42147;DHT22;27815;43.410;11.852;2023-05-16T09:53:15;15.50;76.00
42147;DHT22;27815;43.410;11.852;2023-05-16T09:57:18;15.50;75.70
42147;DHT22;27815;43.410;11.852;2023-05-16T10:01:22;15.60;75.60
42147;DHT22;27815;43.410;11.852;2023-05-16T10:05:26;15.60;75.70
42147;DHT22;27815;43.410;11.852;2023-05-16T10:09:33;15.60;75.80
42147;DHT22;27815;43.410;11.852;2023-05-16T10:13:37;15.60;75.90
42147;DHT22;27815;43.410;11.852;2023-05-16T10:17:42;15.70;75.80
42147;DHT22;27815;43.410;11.852;2023-05-16T10:21:49;15.80;75.90
42147;DHT22;27815;43.410;11.852;2023-05-16T10:25:54;15.90;75.80
42147;DHT22;27815;43.410;11.852;2023-05-16T10:30:00;15.90;75.90
42147;DHT22;27815;43.410;11.852;2023-05-16T10:34:03;16.00;75.80
42147;DHT22;27815;43.410;11.852;2023-05-16T10:38:07;16.00;75.80
42147;DHT22;27815;43.410;11.852;2023-05-16T10:42:11;16.20;75.80
42147;DHT22;27815;43.410;11.852;2023-05-16T10:46:21;16.50;75.50
42147;DHT22;27815;43.410;11.852;2023-05-16T10:54:49;16.50;75.80
42147;DHT22;27815;43.410;11.852;2023-05-16T10:58:55;16.50;75.90
42147;DHT22;27815;43.410;11.852;2023-05-16T11:03:04;16.50;75.60
42147;DHT22;27815;43.410;11.852;2023-05-16T11:07:09;16.60;75.60
42147;DHT22;27815;43.410;11.852;2023-05-16T11:11:42;16.60;75.40
42147;DHT22;27815;43.410;11.852;2023-05-16T11:15:50;16.70;75.20
42147;DHT22;27815;43.410;11.852;2023-05-16T11:19:59;16.70;75.20
42147;DHT22;27815;43.410;11.852;2023-05-16T11:24:27;16.60;75.50
42147;DHT22;27815;43.410;11.852;2023-05-16T11:28:31;16.60;75.30
42147;DHT22;27815;43.410;11.852;2023-05-16T11:32:39;16.60;75.30
42147;DHT22;27815;43.410;11.852;2023-05-16T11:36:42;16.60;75.40
42147;DHT22;27815;43.410;11.852;2023-05-16T11:40:46;16.60;75.40
42147;DHT22;27815;43.410;11.852;2023-05-16T11:44:49;16.60;75.30
42147;DHT22;27815;43.410;11.852;2023-05-16T11:48:52;16.60;75.40
42147;DHT22;27815;43.410;11.852;2023-05-16T11:52:55;16.70;75.30
42147;DHT22;27815;43.410;11.852;2023-05-16T11:56:59;16.80;75.30
42147;DHT22;27815;43.410;11.852;2023-05-16T12:01:03;16.80;75.20
42147;DHT22;27815;43.410;11.852;2023-05-16T12:05:08;16.90;75.10
42147;DHT22;27815;43.410;11.852;2023-05-16T12:09:14;16.90;75.20
42147;DHT22;27815;43.410;11.852;2023-05-16T12:13:22;17.00;75.50
42147;DHT22;27815;43.410;11.852;2023-05-16T12:17:26;16.90;75.60
42147;DHT22;27815;43.410;11.852;2023-05-16T12:21:33;17.00;75.60
42147;DHT22;27815;43.410;11.852;2023-05-16T12:25:36;17.00;75.60
42147;DHT22;27815;43.410;11.852;2023-05-16T12:29:46;17.10;75.40
42147;DHT22;27815;43.410;11.852;2023-05-16T12:33:52;17.10;75.40
42147;DHT22;27815;43.410;11.852;2023-05-16T12:37:56;17.00;75.40
42147;DHT22;27815;43.410;11.852;2023-05-16T12:42:04;17.00;75.40
42147;DHT22;27815;43.410;11.852;2023-05-16T12:46:09;17.00;75.50
42147;DHT22;27815;43.410;11.852;2023-05-16T12:50:14;17.00;75.50
42147;DHT22;27815;43.410;11.852;2023-05-16T12:54:19;17.00;75.20
42147;DHT22;27815;43.410;11.852;2023-05-16T12:58:24;17.00;75.40
42147;DHT22;27815;43.410;11.852;2023-05-16T13:02:27;17.00;75.50
42147;DHT22;27815;43.410;11.852;2023-05-16T13:06:31;17.00;75.70
42147;DHT22;27815;43.410;11.852;2023-05-16T13:10:53;17.00;75.80
42147;DHT22;27815;43.410;11.852;2023-05-16T13:15:00;16.90;76.00
42147;DHT22;27815;43.410;11.852;2023-05-16T13:19:03;16.90;76.00
42147;DHT22;27815;43.410;11.852;2023-05-16T13:23:07;16.80;76.00
42147;DHT22;27815;43.410;11.852;2023-05-16T13:27:10;16.80;76.10
42147;DHT22;27815;43.410;11.852;2023-05-16T13:31:13;16.80;76.10
42147;DHT22;27815;43.410;11.852;2023-05-16T13:35:16;16.80;76.00
42147;DHT22;27815;43.410;11.852;2023-05-16T13:39:19;16.80;75.90
42147;DHT22;27815;43.410;11.852;2023-05-16T13:43:23;16.80;76.10
42147;DHT22;27815;43.410;11.852;2023-05-16T13:47:26;16.80;76.20
42147;DHT22;27815;43.410;11.852;2023-05-16T13:51:29;16.80;76.20
42147;DHT22;27815;43.410;11.852;2023-05-16T13:55:33;16.80;76.00
42147;DHT22;27815;43.410;11.852;2023-05-16T13:59:36;16.90;75.90
42147;DHT22;27815;43.410;11.852;2023-05-16T14:03:59;16.90;75.80
42147;DHT22;27815;43.410;11.852;2023-05-16T14:08:02;16.90;75.70
42147;DHT22;27815;43.410;11.852;2023-05-16T14:12:05;16.90;75.80
42147;DHT22;27815;43.410;11.852;2023-05-16T14:16:09;17.00;75.90
42147;DHT22;27815;43.410;11.852;2023-05-16T14:20:12;17.00;75.80
42147;DHT22;27815;43.410;11.852;2023-05-16T14:24:17;16.90;75.80
42147;DHT22;27815;43.410;11.852;2023-05-16T14:28:20;16.80;75.70
42147;DHT22;27815;43.410;11.852;2023-05-16T14:32:23;16.70;75.70
42147;DHT22;27815;43.410;11.852;2023-05-16T14:36:26;16.70;75.70
42147;DHT22;27815;43.410;11.852;2023-05-16T14:40:29;16.70;75.60
42147;DHT22;27815;43.410;11.852;2023-05-16T14:44:33;16.60;75.50
42147;DHT22;27815;43.410;11.852;2023-05-16T14:48:36;16.60;75.50
42147;DHT22;27815;43.410;11.852;2023-05-16T14:52:39;16.50;75.60
42147;DHT22;27815;43.410;11.852;2023-05-16T14:56:42;16.50;75.60
42147;DHT22;27815;43.410;11.852;2023-05-16T15:00:45;16.50;75.60
42147;DHT22;27815;43.410;11.852;2023-05-16T15:04:48;16.40;75.70
42147;DHT22;27815;43.410;11.852;2023-05-16T15:08:58;16.30;75.70
42147;DHT22;27815;43.410;11.852;2023-05-16T15:13:01;16.30;75.80
42147;DHT22;27815;43.410;11.852;2023-05-16T15:17:05;16.20;75.80
42147;DHT22;27815;43.410;11.852;2023-05-16T15:21:10;16.20;75.90
42147;DHT22;27815;43.410;11.852;2023-05-16T15:25:14;16.20;75.90
42147;DHT22;27815;43.410;11.852;2023-05-16T15:29:17;16.10;76.00
42147;DHT22;27815;43.410;11.852;2023-05-16T15:33:21;16.10;76.00
42147;DHT22;27815;43.410;11.852;2023-05-16T15:37:24;16.10;76.10
42147;DHT22;27815;43.410;11.852;2023-05-16T15:41:28;16.10;76.10
42147;DHT22;27815;43.410;11.852;2023-05-16T15:45:50;16.10;76.20
42147;DHT22;27815;43.410;11.852;2023-05-16T15:49:54;16.10;76.20
42147;DHT22;27815;43.410;11.852;2023-05-16T15:53:57;16.10;76.20
42147;DHT22;27815;43.410;11.852;2023-05-16T15:58:00;16.20;76.20
42147;DHT22;27815;43.410;11.852;2023-05-16T16:02:03;16.20;76.20
42147;DHT22;27815;43.410;11.852;2023-05-16T16:06:07;16.20;76.10
42147;DHT22;27815;43.410;11.852;2023-05-16T16:10:11;16.30;76.20
42147;DHT22;27815;43.410;11.852;2023-05-16T16:14:15;16.20;76.40
42147;DHT22;27815;43.410;11.852;2023-05-16T16:18:17;16.20;76.40
42147;DHT22;27815;43.410;11.852;2023-05-16T16:22:21;16.10;76.50
42147;DHT22;27815;43.410;11.852;2023-05-16T16:26:24;16.10;76.60
42147;DHT22;27815;43.410;11.852;2023-05-16T16:30:27;16.10;76.70
42147;DHT22;27815;43.410;11.852;2023-05-16T16:34:31;16.10;76.70
42147;DHT22;27815;43.410;11.852;2023-05-16T16:38:34;16.10;76.80
42147;DHT22;27815;43.410;11.852;2023-05-16T16:42:37;16.00;76.90
42147;DHT22;27815;43.410;11.852;2023-05-16T16:46:41;16.00;76.90
42147;DHT22;27815;43.410;11.852;2023-05-16T16:50:44;16.00;76.90
42147;DHT22;27815;43.410;11.852;2023-05-16T16:54:48;16.00;76.90
42147;DHT22;27815;43.410;11.852;2023-05-16T16:58:51;16.00;76.90
42147;DHT22;27815;43.410;11.852;2023-05-16T17:02:55;16.00;76.90
42147;DHT22;27815;43.410;11.852;2023-05-16T17:06:58;16.00;76.90
42147;DHT22;27815;43.410;11.852;2023-05-16T17:11:01;16.00;76.90
42147;DHT22;27815;43.410;11.852;2023-05-16T17:15:10;16.00;76.90
42147;DHT22;27815;43.410;11.852;2023-05-16T17:19:14;16.00;77.00
42147;DHT22;27815;43.410;11.852;2023-05-16T17:23:17;15.90;77.00
42147;DHT22;27815;43.410;11.852;2023-05-16T17:27:20;15.90;77.00
42147;DHT22;27815;43.410;11.852;2023-05-16T17:31:23;15.80;76.90
42147;DHT22;27815;43.410;11.852;2023-05-16T17:35:26;15.70;76.80
42147;DHT22;27815;43.410;11.852;2023-05-16T17:39:29;15.70;76.80
42147;DHT22;27815;43.410;11.852;2023-05-16T17:43:32;15.60;76.70
42147;DHT22;27815;43.410;11.852;2023-05-16T17:47:35;15.50;76.60
42147;DHT22;27815;43.410;11.852;2023-05-16T17:51:46;15.50;76.60
42147;DHT22;27815;43.410;11.852;2023-05-16T17:55:50;15.50;76.60
42147;DHT22;27815;43.410;11.852;2023-05-16T17:59:53;15.40;76.50
42147;DHT22;27815;43.410;11.852;2023-05-16T18:03:56;15.30;76.60
42147;DHT22;27815;43.410;11.852;2023-05-16T18:07:59;15.20;76.60
42147;DHT22;27815;43.410;11.852;2023-05-16T18:12:02;15.20;76.60
42147;DHT22;27815;43.410;11.852;2023-05-16T18:16:05;15.10;76.50
42147;DHT22;27815;43.410;11.852;2023-05-16T18:20:10;15.00;76.50
42147;DHT22;27815;43.410;11.852;2023-05-16T18:24:14;14.90;76.50
42147;DHT22;27815;43.410;11.852;2023-05-16T18:28:17;14.90;76.50
42147;DHT22;27815;43.410;11.852;2023-05-16T18:32:20;14.80;76.40
42147;DHT22;27815;43.410;11.852;2023-05-16T18:36:23;14.70;76.40
42147;DHT22;27815;43.410;11.852;2023-05-16T18:40:26;14.60;76.40
42147;DHT22;27815;43.410;11.852;2023-05-16T18:44:30;14.60;76.40
42147;DHT22;27815;43.410;11.852;2023-05-16T18:48:34;14.50;76.50
42147;DHT22;27815;43.410;11.852;2023-05-16T18:52:37;14.50;76.50
42147;DHT22;27815;43.410;11.852;2023-05-16T18:56:42;14.40;76.60
42147;DHT22;27815;43.410;11.852;2023-05-16T19:00:45;14.30;76.60
42147;DHT22;27815;43.410;11.852;2023-05-16T19:04:48;14.30;76.60
42147;DHT22;27815;43.410;11.852;2023-05-16T19:08:51;14.30;76.60
42147;DHT22;27815;43.410;11.852;2023-05-16T19:12:54;14.30;76.60
42147;DHT22;27815;43.410;11.852;2023-05-16T19:16:58;14.30;76.60
42147;DHT22;27815;43.410;11.852;2023-05-16T19:21:01;14.30;76.60
42147;DHT22;27815;43.410;11.852;2023-05-16T19:25:08;14.30;76.60
42147;DHT22;27815;43.410;11.852;2023-05-16T19:29:11;14.30;76.50
42147;DHT22;27815;43.410;11.852;2023-05-16T19:33:14;14.20;76.50
42147;DHT22;27815;43.410;11.852;2023-05-16T19:37:16;14.20;76.50
42147;DHT22;27815;43.410;11.852;2023-05-16T19:41:19;14.20;76.50
42147;DHT22;27815;43.410;11.852;2023-05-16T19:45:27;14.20;76.50
42147;DHT22;27815;43.410;11.852;2023-05-16T19:49:30;14.20;76.40
42147;DHT22;27815;43.410;11.852;2023-05-16T19:53:59;14.30;76.30
42147;DHT22;27815;43.410;11.852;2023-05-16T19:58:05;14.30;76.20
42147;DHT22;27815;43.410;11.852;2023-05-16T20:02:11;14.30;76.20
42147;DHT22;27815;43.410;11.852;2023-05-16T20:06:14;14.30;76.10
42147;DHT22;27815;43.410;11.852;2023-05-16T20:10:20;14.30;76.10
42147;DHT22;27815;43.410;11.852;2023-05-16T20:14:24;14.30;76.00
42147;DHT22;27815;43.410;11.852;2023-05-16T20:18:32;14.30;75.90
42147;DHT22;27815;43.410;11.852;2023-05-16T20:22:35;14.30;75.90
42147;DHT22;27815;43.410;11.852;2023-05-16T20:26:46;14.30;75.90
42147;DHT22;27815;43.410;11.852;2023-05-16T20:30:49;14.30;75.80
42147;DHT22;27815;43.410;11.852;2023-05-16T20:34:52;14.30;75.80
42147;DHT22;27815;43.410;11.852;2023-05-16T20:38:55;14.20;75.80
42147;DHT22;27815;43.410;11.852;2023-05-16T20:42:58;14.20;75.90
42147;DHT22;27815;43.410;11.852;2023-05-16T20:47:03;14.20;75.90
42147;DHT22;27815;43.410;11.852;2023-05-16T20:51:10;14.20;75.80
42147;DHT22;27815;43.410;11.852;2023-05-16T20:55:17;14.30;75.70
42147;DHT22;27815;43.410;11.852;2023-05-16T20:59:23;14.20;75.70
42147;DHT22;27815;43.410;11.852;2023-05-16T21:03:28;14.20;75.60
42147;DHT22;27815;43.410;11.852;2023-05-16T21:07:30;14.20;75.50
42147;DHT22;27815;43.410;11.852;2023-05-16T21:11:35;14.30;75.50
42147;DHT22;27815;43.410;11.852;2023-05-16T21:15:41;14.30;75.40
42147;DHT22;27815;43.410;11.852;2023-05-16T21:19:51;14.30;75.30
42147;DHT22;27815;43.410;11.852;2023-05-16T21:23:56;14.40;75.20
42147;DHT22;27815;43.410;11.852;2023-05-16T21:28:00;14.40;75.10
42147;DHT22;27815;43.410;11.852;2023-05-16T21:32:08;14.40;75.00
42147;DHT22;27815;43.410;11.852;2023-05-16T21:36:11;14.40;75.00
42147;DHT22;27815;43.410;11.852;2023-05-16T21:40:14;14.40;74.90
42147;DHT22;27815;43.410;11.852;2023-05-16T21:44:24;14.40;74.90
42147;DHT22;27815;43.410;11.852;2023-05-16T21:48:28;14.50;74.90
42147;DHT22;27815;43.410;11.852;2023-05-16T21:52:31;14.40;74.80
42147;DHT22;27815;43.410;11.852;2023-05-16T21:56:34;14.50;74.80
42147;DHT22;27815;43.410;11.852;2023-05-16T22:00:37;14.50;74.80
42147;DHT22;27815;43.410;11.852;2023-05-16T22:04:43;14.50;74.70
42147;DHT22;27815;43.410;11.852;2023-05-16T22:08:46;14.50;74.60
42147;DHT22;27815;43.410;11.852;2023-05-16T22:12:52;14.50;74.60
42147;DHT22;27815;43.410;11.852;2023-05-16T22:16:58;14.50;74.60
42147;DHT22;27815;43.410;11.852;2023-05-16T22:21:02;14.40;74.50
42147;DHT22;27815;43.410;11.852;2023-05-16T22:25:05;14.50;74.50
42147;DHT22;27815;43.410;11.852;2023-05-16T22:29:14;14.50;74.50
42147;DHT22;27815;43.410;11.852;2023-05-16T22:33:22;14.40;74.50
42147;DHT22;27815;43.410;11.852;2023-05-16T22:37:29;14.40;74.40
42147;DHT22;27815;43.410;11.852;2023-05-16T22:41:34;14.40;74.40
42147;DHT22;27815;43.410;11.852;2023-05-16T22:45:38;14.40;74.40
42147;DHT22;27815;43.410;11.852;2023-05-16T22:49:40;14.40;74.40
42147;DHT22;27815;43.410;11.852;2023-05-16T22:53:52;14.40;74.30
42147;DHT22;27815;43.410;11.852;2023-05-16T22:57:56;14.40;74.30
42147;DHT22;27815;43.410;11.852;2023-05-16T23:02:05;14.40;74.30
42147;DHT22;27815;43.410;11.852;2023-05-16T23:06:25;14.40;74.20
42147;DHT22;27815;43.410;11.852;2023-05-16T23:10:31;14.40;74.20
42147;DHT22;27815;43.410;11.852;2023-05-16T23:14:34;14.40;74.20
42147;DHT22;27815;43.410;11.852;2023-05-16T23:18:37;14.30;74.20
42147;DHT22;27815;43.410;11.852;2023-05-16T23:22:40;14.30;74.30
42147;DHT22;27815;43.410;11.852;2023-05-16T23:26:43;14.30;74.30
42147;DHT22;27815;43.410;11.852;2023-05-16T23:30:46;14.20;74.30
42147;DHT22;27815;43.410;11.852;2023-05-16T23:34:49;14.30;74.30
42147;DHT22;27815;43.410;11.852;2023-05-16T23:38:52;14.20;74.30
42147;DHT22;27815;43.410;11.852;2023-05-16T23:42:55;14.20;74.30
42147;DHT22;27815;43.410;11.852;2023-05-16T23:47:00;14.20;74.30
42147;DHT22;27815;43.410;11.852;2023-05-16T23:51:06;14.20;74.30
42147;DHT22;27815;43.410;11.852;2023-05-16T23:55:09;14.20;74.30
42147;DHT22;27815;43.410;11.852;2023-05-16T23:59:12;14.10;74.30
